Saint Louis, MO

8:34 AM CDT on August 29, 2014 (GMT -0500)
Webster Groves | Change Station
CLOSE
Current Station
Personal Weather Station
Location: Webster Groves, MO
Elevation: 571 ft
Nearby Weather Stations
Active Advisory: Air Quality Alert

Elev 571 ft 38.59 °N, 90.35 °W | Updated 4 minutes ago

Partly Cloudy
Partly Cloudy
78.2 °F
Feels Like 81 °F
N
0.0
Wind Variable Wind from SE

Today
High -- | Low -- °F
--% Chance of Precip.
Yesterday
High -- | Low -- °F
Precip. -- in
6:28 AM 7:35 PM
Waxing Crescent, 14% visible
Pressure 29.94 in
Visibility 7.0 miles
Clouds Few 7500 ft
Scattered Clouds 15000 ft
Heat Index 81 °F
Dew Point 71 °F
Humidity 78%
Rainfall 0.00 in
Snow Depth Not available.
UV 1 out of 12
Pollen 10.70 out of 12
Ozone Good
PM2.5 Moderate
Flu Activity Not available.
METAR KSTL 291251Z 18006KT 7SM FEW075 SCT150 25/22 A2998 RMK AO2 SLP139 ACC SW T02500217

More Conditions Fewer Conditions

Pressure 29.94 in
Visibility 7.0 miles
Clouds Few 7500 ft
Scattered Clouds 15000 ft
Heat Index 81 °F
Dew Point 71 °F
Humidity 78%
Rainfall 0.00 in
Snow Depth Not available.
UV 1 out of 12
Pollen 10.70 out of 12
Ozone Good
PM2.5 Moderate
Flu Activity Not available.
METAR KSTL 291251Z 18006KT 7SM FEW075 SCT150 25/22 A2998 RMK AO2 SLP139 ACC SW T02500217

More Conditions Fewer Conditions

10-Day Weather Forecast

Almanac

Astronomy

Aug. 29, 2014 Rise Set
Actual Time 6:28 AM CDT 7:35 PM CDT
Civil Twilight 6:00 AM CDT 8:03 PM CDT
Nautical Twilight 5:28 AM CDT 8:35 PM CDT
Astronomical Twilight 4:54 AM CDT 9:09 PM CDT
Moon 10:14 AM CDT 9:37 PM CDT
Length of Visible Light 14h 02m
Length of Day
13h 07m
Tomorrow will be 2m 24s shorter.
Waxing Crescent, 14% of the Moon is Illuminated
Today
Waxing Crescent
Sep 2
First Quarter
Sep 8
Full
Sep 15
Last Quarter
Sep 24
New

Today's Extremes

State Highs State Lows

Community

WunderPhotos

Upload Photos

1,748,229 photos uploaded!

Nearby

Air Quality

  Air Quality AQ Index Pollutant
Yesterday Moderate
OZONE
Yesterday Moderate
PM2.5
Current Moderate
PM2.5
Current Good
OZONE
Friday Moderate
OZONE

Snow Depth

Station Depth Elevation
No new snow has been reported.

Earthquake Activity

City Distance Mag. Time & Date
No recent earthquake activity has been reported nearby.
Minimum magnitude displayed is 2.5.

Coastal Water Temperatures

Place Temperature
No Stations Reporting

Nearby Weather Stations